createdAt,value
2024-02-12T00:01:12.291Z,94694.47
2024-02-12T00:04:09.379Z,94689.56
2024-02-12T00:07:06.323Z,94688.06
2024-02-12T00:10:06.653Z,94692.69
2024-02-12T00:13:04.338Z,94694.19
2024-02-12T00:16:01.233Z,94689.13
2024-02-12T00:18:59.050Z,94701.69
2024-02-12T00:21:56.696Z,94689.91
2024-02-12T00:24:53.577Z,94692.47
2024-02-12T00:27:50.490Z,94691.88
2024-02-12T00:30:47.329Z,94715.53
2024-02-12T00:33:44.479Z,94707.13
2024-02-12T00:36:42.509Z,94699.59
2024-02-12T00:39:39.418Z,94703.25
2024-02-12T00:42:37.254Z,94709.09
2024-02-12T00:45:34.711Z,94705.84
2024-02-12T00:48:33.065Z,94702.72
2024-02-12T00:51:30.042Z,94715.31
2024-02-12T00:54:28.700Z,94716.34
2024-02-12T00:57:25.760Z,94711.88
2024-02-12T01:00:24.131Z,94717.91
2024-02-12T01:03:21.150Z,94711.91
2024-02-12T01:06:18.239Z,94708.03
2024-02-12T01:09:15.585Z,94714.06
2024-02-12T01:12:12.431Z,94717.41
2024-02-12T01:15:11.191Z,94716.63
2024-02-12T01:18:11.068Z,94723.50
2024-02-12T01:21:08.689Z,94726.81
2024-02-12T01:24:06.680Z,94726.56
2024-02-12T01:27:03.759Z,94724.22
2024-02-12T01:30:00.648Z,94727.91
2024-02-12T01:32:57.922Z,94737.66
2024-02-12T01:35:54.920Z,94735.94
2024-02-12T01:38:53.018Z,94725.25
2024-02-12T01:41:49.922Z,94723.25
2024-02-12T01:45:13.422Z,94730.19
2024-02-12T01:48:11.948Z,94734.22
2024-02-12T01:51:10.495Z,94718.31
2024-02-12T01:54:08.843Z,94721.56
2024-02-12T01:57:06.733Z,94713.41
2024-02-12T02:00:06.403Z,94725.72
2024-02-12T02:03:03.384Z,94725.19
2024-02-12T02:06:01.220Z,94724.78
2024-02-12T02:08:59.196Z,94731.69
2024-02-12T02:11:56.079Z,94732.78
2024-02-12T02:14:52.965Z,94727.03
2024-02-12T02:17:49.948Z,94742.59
2024-02-12T02:20:48.151Z,94726.34
2024-02-12T02:23:45.333Z,94721.72
2024-02-12T02:26:42.337Z,94725.97
2024-02-12T02:29:39.273Z,94719.53
2024-02-12T02:32:39.115Z,94726.16
2024-02-12T02:35:39.313Z,94721.44
2024-02-12T02:38:36.423Z,94716.06
2024-02-12T02:41:34.128Z,94721.09
2024-02-12T02:44:31.372Z,94724.44
2024-02-12T02:47:28.445Z,94722.50
2024-02-12T02:50:26.444Z,94717.53
2024-02-12T02:53:23.451Z,94723.75
2024-02-12T02:56:21.209Z,94731.75
2024-02-12T02:59:18.097Z,94719.41
2024-02-12T03:02:15.362Z,94726.53
2024-02-12T03:05:16.072Z,94728.06
2024-02-12T03:08:13.361Z,94721.56
2024-02-12T03:11:10.529Z,94736.09
2024-02-12T03:14:10.779Z,94736.44
2024-02-12T03:17:08.250Z,94741.63
2024-02-12T03:20:06.957Z,94734.47
2024-02-12T03:23:04.164Z,94738.31
2024-02-12T03:26:01.075Z,94731.81
2024-02-12T03:28:57.996Z,94731.81
2024-02-12T03:31:54.944Z,94745.72
2024-02-12T03:34:51.939Z,94737.25
2024-02-12T03:37:48.944Z,94737.75
2024-02-12T03:40:45.796Z,94744.28
2024-02-12T03:43:42.683Z,94745.69
2024-02-12T03:46:47.164Z,94747.00
2024-02-12T03:50:02.353Z,94742.66
2024-02-12T03:53:21.999Z,94745.31
2024-02-12T03:56:37.267Z,94758.56
2024-02-12T03:59:54.333Z,94756.81
2024-02-12T04:02:51.289Z,94766.25
2024-02-12T04:05:48.188Z,94761.88
2024-02-12T04:08:46.546Z,94768.56
2024-02-12T04:11:43.648Z,94774.41
2024-02-12T04:14:43.292Z,94772.47
2024-02-12T04:17:41.085Z,94773.25
2024-02-12T04:20:38.763Z,94775.84
2024-02-12T04:23:38.693Z,94771.22
2024-02-12T04:26:38.922Z,94777.31
2024-02-12T04:29:41.662Z,94779.53
2024-02-12T04:32:38.928Z,94776.84
2024-02-12T04:35:36.685Z,94778.56
2024-02-12T04:38:35.104Z,94781.94
2024-02-12T04:41:41.035Z,94780.06
2024-02-12T04:44:38.035Z,94788.44
2024-02-12T04:47:35.138Z,94785.50
2024-02-12T04:50:32.062Z,94788.31
2024-02-12T04:53:28.989Z,94789.59
2024-02-12T04:56:26.168Z,94791.06
2024-02-12T04:59:23.695Z,94807.28
2024-02-12T05:02:22.196Z,94803.56
2024-02-12T05:05:19.387Z,94820.03
2024-02-12T05:08:17.774Z,94808.94
2024-02-12T05:11:18.259Z,94817.13
2024-02-12T05:14:15.221Z,94820.75
2024-02-12T05:17:12.747Z,94815.56
2024-02-12T05:20:28.772Z,94815.13
2024-02-12T05:23:26.286Z,94824.25
2024-02-12T05:26:23.259Z,94826.16
2024-02-12T05:29:20.273Z,94820.38
2024-02-12T05:32:17.413Z,94818.94
2024-02-12T05:35:14.509Z,94831.41
2024-02-12T05:38:11.584Z,94837.09
2024-02-12T05:41:08.661Z,94837.84
2024-02-12T05:44:05.555Z,94842.81
2024-02-12T05:47:05.917Z,94834.28
2024-02-12T05:50:02.893Z,94844.28
2024-02-12T05:53:00.830Z,94846.44
2024-02-12T05:55:58.331Z,94848.97
2024-02-12T05:58:55.269Z,94845.56
2024-02-12T06:01:52.323Z,94850.19
2024-02-12T06:04:49.373Z,94852.41
2024-02-12T06:07:46.380Z,94858.28
2024-02-12T06:10:44.096Z,94860.91
2024-02-12T06:13:40.977Z,94856.25
2024-02-12T06:16:38.996Z,94863.84
2024-02-12T06:19:35.882Z,94879.13
2024-02-12T06:22:33.798Z,94884.56
2024-02-12T06:25:30.753Z,94875.47
2024-02-12T06:28:27.627Z,94882.78
2024-02-12T06:31:24.499Z,94888.16
2024-02-12T06:34:22.432Z,94895.66
2024-02-12T06:37:19.353Z,94898.03
2024-02-12T06:40:16.528Z,94902.84
2024-02-12T06:43:13.408Z,94913.81
2024-02-12T06:46:10.278Z,94909.72
2024-02-12T06:49:07.163Z,94915.28
2024-02-12T06:52:04.753Z,94919.53
2024-02-12T06:55:01.679Z,94918.81
2024-02-12T06:57:58.667Z,94926.97
2024-02-12T07:00:57.408Z,94938.72
2024-02-12T07:03:56.236Z,94943.19
2024-02-12T07:06:53.237Z,94952.13
2024-02-12T07:09:50.098Z,94944.97
2024-02-12T07:12:48.014Z,94955.22
2024-02-12T07:15:45.012Z,94956.19
2024-02-12T07:18:42.073Z,94951.94
2024-02-12T07:21:40.818Z,94957.88
2024-02-12T07:24:37.958Z,94971.66
2024-02-12T07:27:34.824Z,94971.00
2024-02-12T07:30:31.898Z,94962.38
2024-02-12T07:33:28.957Z,94978.94
2024-02-12T07:36:26.043Z,94996.91
2024-02-12T07:39:23.729Z,94990.22
2024-02-12T07:42:20.600Z,94997.94
2024-02-12T07:45:17.536Z,94997.56
2024-02-12T07:48:16.611Z,95003.78
2024-02-12T07:51:15.870Z,94991.19
2024-02-12T07:54:12.813Z,94997.19
2024-02-12T07:57:10.085Z,94995.53
2024-02-12T08:00:15.448Z,94996.91
2024-02-12T08:03:12.810Z,94997.63
2024-02-12T08:06:13.523Z,95003.38
2024-02-12T08:09:12.062Z,95002.47
2024-02-12T08:12:09.384Z,95007.81
2024-02-12T08:15:07.424Z,95008.53
2024-02-12T08:18:07.822Z,95008.50
2024-02-12T08:21:05.444Z,95019.34
2024-02-12T08:24:02.406Z,95024.38
2024-02-12T08:26:59.266Z,95028.66
2024-02-12T08:29:56.236Z,95028.16
2024-02-12T08:32:53.299Z,95026.81
2024-02-12T08:35:50.423Z,95036.72
2024-02-12T08:38:47.413Z,95039.13
2024-02-12T08:41:44.356Z,95045.09
2024-02-12T08:44:41.410Z,95049.28
2024-02-12T08:47:41.492Z,95052.09
2024-02-12T08:50:38.525Z,95049.06
2024-02-12T08:53:40.937Z,95060.91
2024-02-12T08:56:43.092Z,95059.16
2024-02-12T08:59:40.289Z,95060.41
2024-02-12T09:02:37.577Z,95067.63
2024-02-12T09:05:34.670Z,95068.72
2024-02-12T09:08:33.309Z,95066.00
2024-02-12T09:11:30.395Z,95074.78
2024-02-12T09:14:28.005Z,95078.66
2024-02-12T09:17:27.425Z,95082.00
2024-02-12T09:20:26.207Z,95089.53
2024-02-12T09:23:24.065Z,95102.31
2024-02-12T09:26:21.010Z,95106.72
2024-02-12T09:29:19.000Z,95099.00
2024-02-12T09:32:16.174Z,95099.13
2024-02-12T09:35:13.942Z,95108.19
2024-02-12T09:38:11.019Z,95111.41
2024-02-12T09:41:10.602Z,95114.84
2024-02-12T09:44:12.489Z,95115.56
2024-02-12T09:47:15.677Z,95115.09
2024-02-12T09:50:14.985Z,95117.66
2024-02-12T09:53:24.469Z,95126.88
2024-02-12T09:56:23.195Z,95127.72
2024-02-12T09:59:20.206Z,95128.88
2024-02-12T10:02:17.528Z,95133.25
2024-02-12T10:05:24.680Z,95130.59
2024-02-12T10:08:28.024Z,95139.34
2024-02-12T10:11:29.956Z,95134.66
2024-02-12T10:14:34.349Z,95134.72
2024-02-12T10:17:32.656Z,95143.63
2024-02-12T10:20:29.717Z,95146.69
2024-02-12T10:23:27.540Z,95150.78
2024-02-12T10:26:25.641Z,95144.31
2024-02-12T10:29:22.570Z,95153.56
2024-02-12T10:32:20.550Z,95145.22
2024-02-12T10:35:21.320Z,95152.16
2024-02-12T10:38:18.357Z,95156.59
2024-02-12T10:41:51.141Z,95160.38
2024-02-12T10:44:50.757Z,95157.16
2024-02-12T10:47:49.279Z,95157.56
2024-02-12T10:50:48.594Z,95175.28
2024-02-12T10:53:46.284Z,95181.00
2024-02-12T10:56:45.013Z,95176.63
2024-02-12T10:59:42.135Z,95183.34
2024-02-12T11:02:44.835Z,95181.38
2024-02-12T11:05:44.500Z,95181.44
2024-02-12T11:08:43.437Z,95183.97
2024-02-12T11:11:50.174Z,95178.97
2024-02-12T11:14:47.502Z,95178.16
2024-02-12T11:17:44.547Z,95183.75
2024-02-12T11:20:52.313Z,95188.41
2024-02-12T11:23:52.140Z,95193.19
2024-02-12T11:26:51.411Z,95205.00
2024-02-12T11:29:48.803Z,95207.94
2024-02-12T11:32:49.687Z,95212.81
2024-02-12T11:35:46.732Z,95226.56
2024-02-12T11:38:52.877Z,95223.28
2024-02-12T11:41:50.223Z,95210.91
2024-02-12T11:44:48.198Z,95220.47
2024-02-12T11:47:48.770Z,95224.38
2024-02-12T11:50:47.259Z,95218.13
2024-02-12T11:53:44.234Z,95224.22
2024-02-12T11:56:42.016Z,95230.03
2024-02-12T11:59:39.104Z,95222.94
2024-02-12T12:02:36.216Z,95235.47
2024-02-12T12:05:33.276Z,95232.50
2024-02-12T12:08:32.706Z,95228.81
2024-02-12T12:11:29.733Z,95232.69
2024-02-12T12:14:26.688Z,95234.53
2024-02-12T12:17:30.700Z,95237.81
2024-02-12T12:20:33.416Z,95240.03
2024-02-12T12:23:31.682Z,95244.53
2024-02-12T12:26:32.498Z,95251.16
2024-02-12T12:29:29.405Z,95245.75
2024-02-12T12:32:26.474Z,95249.66
2024-02-12T12:35:24.829Z,95250.00
2024-02-12T12:38:22.912Z,95250.31
2024-02-12T12:41:21.525Z,95254.56
2024-02-12T12:44:18.474Z,95258.44
2024-02-12T12:47:15.430Z,95260.63
2024-02-12T12:50:15.175Z,95257.22
2024-02-12T12:53:12.357Z,95262.78
2024-02-12T12:56:09.296Z,95248.69
2024-02-12T12:59:07.120Z,95248.28
2024-02-12T13:02:07.473Z,95254.53
2024-02-12T13:05:05.555Z,95243.13
2024-02-12T13:08:18.162Z,95251.66
2024-02-12T13:11:18.330Z,95251.97
2024-02-12T13:14:15.309Z,95253.19
2024-02-12T13:17:13.323Z,95252.50
2024-02-12T13:20:23.100Z,95245.03
2024-02-12T13:23:21.988Z,95250.25
2024-02-12T13:26:22.486Z,95259.59
2024-02-12T13:29:25.720Z,95259.84
2024-02-12T13:32:23.161Z,95256.75
2024-02-12T13:35:20.408Z,95257.66
2024-02-12T13:38:19.700Z,95267.56
2024-02-12T13:41:17.772Z,95261.06
2024-02-12T13:44:17.695Z,95259.22
2024-02-12T13:47:14.675Z,95263.78
2024-02-12T13:50:12.400Z,95267.69
2024-02-12T13:53:11.154Z,95272.88
2024-02-12T13:56:08.244Z,95297.63
2024-02-12T13:59:06.002Z,95282.25
2024-02-12T14:02:05.785Z,95288.28
2024-02-12T14:05:04.484Z,95295.59
2024-02-12T14:08:03.689Z,95303.63
2024-02-12T14:11:00.768Z,95303.88
2024-02-12T14:13:57.806Z,95311.22
2024-02-12T14:16:55.631Z,95315.19
2024-02-12T14:19:52.592Z,95321.72
2024-02-12T14:22:52.077Z,95315.72
2024-02-12T14:25:49.156Z,95336.78
2024-02-12T14:28:46.034Z,95342.00
2024-02-12T14:32:34.491Z,95337.13
2024-02-12T14:34:59.899Z,95338.25
2024-02-12T14:37:57.429Z,95347.78
2024-02-12T14:40:57.698Z,95355.06
2024-02-12T14:43:55.905Z,95350.59
2024-02-12T14:46:52.806Z,95368.91
2024-02-12T14:49:49.906Z,95380.72
2024-02-12T14:52:46.823Z,95380.50
2024-02-12T14:55:43.726Z,95379.53
2024-02-12T14:58:40.834Z,95389.66
2024-02-12T15:01:42.239Z,95392.81
2024-02-12T15:04:39.099Z,95393.84
2024-02-12T15:07:35.963Z,95392.66
2024-02-12T15:10:36.567Z,95393.91
2024-02-12T15:13:33.542Z,95408.81
2024-02-12T15:16:33.601Z,95415.41
2024-02-12T15:19:30.587Z,95421.06
2024-02-12T15:22:28.288Z,95414.91
2024-02-12T15:25:25.331Z,95431.84
2024-02-12T15:28:24.896Z,95439.88
2024-02-12T15:31:22.746Z,95435.47
2024-02-12T15:34:20.104Z,95442.00
2024-02-12T15:37:20.132Z,95441.25
2024-02-12T15:40:20.850Z,95451.44
2024-02-12T15:43:18.107Z,95462.13
2024-02-12T15:46:15.009Z,95461.19
2024-02-12T15:49:13.295Z,95459.75
2024-02-12T15:52:12.139Z,95470.13
2024-02-12T15:55:12.073Z,95472.78
2024-02-12T15:58:10.379Z,95475.25
2024-02-12T16:01:08.247Z,95487.66
2024-02-12T16:04:05.993Z,95485.63
2024-02-12T16:07:02.964Z,95499.09
2024-02-12T16:09:59.915Z,95512.84
2024-02-12T16:12:56.826Z,95506.94
2024-02-12T16:15:54.599Z,95515.06
2024-02-12T16:18:56.777Z,95522.44
2024-02-12T16:21:54.795Z,95523.06
2024-02-12T16:24:51.717Z,95525.25
2024-02-12T16:27:48.629Z,95530.34
2024-02-12T16:30:45.772Z,95523.56
2024-02-12T16:33:43.051Z,95523.66
2024-02-12T16:36:40.235Z,95530.13
2024-02-12T16:39:38.450Z,95532.53
2024-02-12T16:42:36.403Z,95540.53
2024-02-12T16:45:35.076Z,95557.06
2024-02-12T16:48:37.046Z,95552.84
2024-02-12T16:51:34.018Z,95560.75
2024-02-12T16:54:30.877Z,95565.03
2024-02-12T16:57:28.191Z,95570.03
2024-02-12T17:00:25.085Z,95574.81
2024-02-12T17:03:22.013Z,95579.22
2024-02-12T17:06:22.382Z,95580.59
2024-02-12T17:09:19.888Z,95587.91
2024-02-12T17:12:16.957Z,95591.56
2024-02-12T17:15:16.405Z,95594.88
2024-02-12T17:18:13.494Z,95595.38
2024-02-12T17:21:11.365Z,95604.69
2024-02-12T17:24:09.809Z,95614.34
2024-02-12T17:27:08.658Z,95617.28
2024-02-12T17:30:09.505Z,95625.03
2024-02-12T17:33:09.007Z,95635.53
2024-02-12T17:36:07.468Z,95642.69
2024-02-12T17:39:04.541Z,95645.41
2024-02-12T17:42:01.412Z,95652.38
2024-02-12T17:44:58.290Z,95653.78
2024-02-12T17:47:55.281Z,95666.69
2024-02-12T17:50:53.183Z,95664.53
2024-02-12T17:53:51.533Z,95665.38
2024-02-12T17:56:50.323Z,95667.75
2024-02-12T17:59:48.660Z,95677.63
2024-02-12T18:02:47.304Z,95679.09
2024-02-12T18:05:44.610Z,95690.03
2024-02-12T18:08:41.513Z,95692.88
2024-02-12T18:11:38.434Z,95696.44
2024-02-12T18:14:36.102Z,95707.75
2024-02-12T18:17:34.265Z,95705.91
2024-02-12T18:20:31.236Z,95707.81
2024-02-12T18:23:28.263Z,95714.78
2024-02-12T18:26:26.226Z,95722.53
2024-02-12T18:29:25.672Z,95716.41
2024-02-12T18:32:23.620Z,95717.34
2024-02-12T18:35:23.093Z,95732.56
2024-02-12T18:38:22.822Z,95745.13
2024-02-12T18:41:21.191Z,95748.13
2024-02-12T18:44:18.622Z,95744.28
2024-02-12T18:47:15.548Z,95748.28
2024-02-12T18:50:12.866Z,95754.31
2024-02-12T18:53:12.162Z,95757.06
2024-02-12T18:56:10.318Z,95755.22
2024-02-12T18:59:08.283Z,95758.84
2024-02-12T19:02:05.817Z,95767.16
2024-02-12T19:05:03.318Z,95768.28
2024-02-12T19:08:00.438Z,95767.06
2024-02-12T19:10:57.390Z,95777.22
2024-02-12T19:13:57.267Z,95778.41
2024-02-12T19:16:54.262Z,95783.91
2024-02-12T19:19:51.134Z,95788.97
2024-02-12T19:22:48.481Z,95786.00
2024-02-12T19:25:46.413Z,95789.69
2024-02-12T19:28:43.312Z,95802.78
2024-02-12T19:31:40.646Z,95797.25
2024-02-12T19:34:37.646Z,95805.38
2024-02-12T19:37:38.764Z,95811.09
2024-02-12T19:40:37.942Z,95815.69
2024-02-12T19:43:35.078Z,95822.25
2024-02-12T19:46:31.941Z,95832.72
2024-02-12T19:49:29.958Z,95826.06
2024-02-12T19:52:27.983Z,95832.25
2024-02-12T19:55:27.982Z,95840.47
2024-02-12T19:58:25.134Z,95852.34
2024-02-12T20:01:22.057Z,95861.03
2024-02-12T20:04:18.972Z,95859.81
2024-02-12T20:07:16.322Z,95862.97
2024-02-12T20:10:16.728Z,95862.63
2024-02-12T20:13:14.709Z,95866.16
2024-02-12T20:16:12.685Z,95869.00
2024-02-12T20:19:09.625Z,95879.50
2024-02-12T20:22:07.340Z,95881.91
2024-02-12T20:25:06.296Z,95883.66
2024-02-12T20:28:05.974Z,95890.41
2024-02-12T20:31:04.230Z,95897.84
2024-02-12T20:34:01.335Z,95892.72
2024-02-12T20:36:58.677Z,95900.06
2024-02-12T20:39:56.467Z,95908.06
2024-02-12T20:42:53.354Z,95910.94
2024-02-12T20:45:50.361Z,95921.69
2024-02-12T20:48:47.378Z,95931.28
2024-02-12T20:51:44.313Z,95928.16
2024-02-12T20:54:41.229Z,95931.38
2024-02-12T20:57:38.356Z,95947.06
2024-02-12T21:00:37.090Z,95939.78
2024-02-12T21:03:34.025Z,95948.44
2024-02-12T21:06:30.947Z,95951.44
2024-02-12T21:09:28.997Z,95958.03
2024-02-12T21:12:26.216Z,95958.69
2024-02-12T21:15:23.114Z,95955.28
2024-02-12T21:18:20.382Z,95960.06
2024-02-12T21:21:17.406Z,95962.28
2024-02-12T21:24:14.378Z,95967.38
2024-02-12T21:27:11.361Z,95965.16
2024-02-12T21:30:11.268Z,95973.16
2024-02-12T21:33:09.642Z,95976.59
2024-02-12T21:36:07.054Z,95977.56
2024-02-12T21:39:10.651Z,95984.56
2024-02-12T21:42:25.135Z,95985.84
2024-02-12T21:45:22.725Z,95986.16
2024-02-12T21:48:19.779Z,95992.56
2024-02-12T21:51:17.776Z,95999.09
2024-02-12T21:54:14.699Z,96002.53
2024-02-12T21:57:11.617Z,96005.84
2024-02-12T22:00:09.368Z,96006.38
2024-02-12T22:03:06.262Z,96009.13
2024-02-12T22:06:04.382Z,96004.59
2024-02-12T22:09:01.271Z,96009.00
2024-02-12T22:11:58.205Z,96011.28
2024-02-12T22:14:58.705Z,96019.56
2024-02-12T22:17:55.864Z,96023.44
2024-02-12T22:20:53.019Z,96033.56
2024-02-12T22:23:50.097Z,96034.28
2024-02-12T22:26:47.065Z,96046.38
2024-02-12T22:29:44.096Z,96051.16
2024-02-12T22:32:41.134Z,96051.06
2024-02-12T22:35:38.389Z,96045.75
2024-02-12T22:38:35.351Z,96051.53
2024-02-12T22:41:41.609Z,96057.81
2024-02-12T22:44:38.675Z,96064.59
2024-02-12T22:47:35.718Z,96068.75
2024-02-12T22:50:33.797Z,96072.78
2024-02-12T22:53:30.770Z,96079.28
2024-02-12T22:56:28.389Z,96086.16
2024-02-12T22:59:25.368Z,96096.41
2024-02-12T23:02:23.473Z,96098.44
2024-02-12T23:05:20.778Z,96100.91
2024-02-12T23:08:17.759Z,96103.78
2024-02-12T23:11:14.707Z,96103.84
2024-02-12T23:14:12.997Z,96105.06
2024-02-12T23:17:09.935Z,96122.09
2024-02-12T23:20:09.097Z,96126.28
2024-02-12T23:23:06.265Z,96120.38
2024-02-12T23:26:03.286Z,96120.50
2024-02-12T23:29:01.528Z,96127.47
2024-02-12T23:31:58.522Z,96132.38
2024-02-12T23:34:56.740Z,96120.00
2024-02-12T23:37:54.057Z,96139.38
2024-02-12T23:40:50.944Z,96145.50
2024-02-12T23:43:47.807Z,96155.19
2024-02-12T23:46:44.672Z,96156.91
2024-02-12T23:49:42.523Z,96155.41
2024-02-12T23:52:40.534Z,96156.84
2024-02-12T23:55:37.459Z,96163.38
2024-02-12T23:58:34.333Z,96168.84
